createdAt,value
2023-05-14T00:00:10.597Z,1018.47
2023-05-14T00:00:26.799Z,1018.52
2023-05-14T00:00:42.920Z,1018.47
2023-05-14T00:00:59.045Z,1018.49
2023-05-14T00:01:15.197Z,1018.48
2023-05-14T00:01:31.352Z,1018.44
2023-05-14T00:01:47.479Z,1018.47
2023-05-14T00:02:03.669Z,1018.46
2023-05-14T00:02:19.849Z,1018.43
2023-05-14T00:02:35.998Z,1018.46
2023-05-14T00:02:52.185Z,1018.47
2023-05-14T00:03:08.469Z,1018.45
2023-05-14T00:03:24.439Z,1018.46
2023-05-14T00:03:40.561Z,1018.44
2023-05-14T00:03:56.799Z,1018.45
2023-05-14T00:04:12.823Z,1018.4
2023-05-14T00:04:28.986Z,1018.39
2023-05-14T00:04:45.110Z,1018.42
2023-05-14T00:05:01.265Z,1018.4
2023-05-14T00:05:17.398Z,1018.42
2023-05-14T00:05:33.570Z,1018.42
2023-05-14T00:05:49.679Z,1018.4
2023-05-14T00:06:05.814Z,1018.39
2023-05-14T00:06:21.971Z,1018.43
2023-05-14T00:06:38.117Z,1018.4
2023-05-14T00:06:54.275Z,1018.41
2023-05-14T00:07:10.396Z,1018.38
2023-05-14T00:07:26.532Z,1018.42
2023-05-14T00:07:42.707Z,1018.39
2023-05-14T00:07:58.830Z,1018.4
2023-05-14T00:08:14.969Z,1018.41
2023-05-14T00:08:31.145Z,1018.39
2023-05-14T00:08:47.259Z,1018.43
2023-05-14T00:09:19.558Z,1018.41
2023-05-14T00:09:35.704Z,1018.4
2023-05-14T00:09:51.890Z,1018.43
2023-05-14T00:10:08.009Z,1018.39
2023-05-14T00:10:24.414Z,1018.37
2023-05-14T00:10:40.307Z,1018.43
2023-05-14T00:10:56.436Z,1018.39
2023-05-14T00:11:12.808Z,1018.39
2023-05-14T00:11:28.773Z,1018.38
2023-05-14T00:11:44.887Z,1018.38
2023-05-14T00:12:01.030Z,1018.37
2023-05-14T00:12:17.170Z,1018.38
2023-05-14T00:12:33.377Z,1018.37
2023-05-14T00:12:49.458Z,1018.39
2023-05-14T00:13:05.596Z,1018.36
2023-05-14T00:13:21.765Z,1018.36
2023-05-14T00:13:37.926Z,1018.34
2023-05-14T00:13:54.049Z,1018.37
2023-05-14T00:14:10.212Z,1018.36
2023-05-14T00:14:26.322Z,1018.32
2023-05-14T00:14:42.481Z,1018.36
2023-05-14T00:14:58.611Z,1018.36
2023-05-14T00:15:14.772Z,1018.32
2023-05-14T00:15:47.106Z,1018.31
2023-05-14T00:16:03.252Z,1018.32
2023-05-14T00:16:19.411Z,1018.34
2023-05-14T00:16:35.553Z,1018.31
2023-05-14T00:16:51.637Z,1018.31
2023-05-14T00:17:07.799Z,1018.35
2023-05-14T00:17:23.873Z,1018.33
2023-05-14T00:17:40.082Z,1018.27
2023-05-14T00:17:56.248Z,1018.31
2023-05-14T00:18:12.482Z,1018.31
2023-05-14T00:18:28.576Z,1018.32
2023-05-14T00:18:44.746Z,1018.33
2023-05-14T00:19:00.911Z,1018.28
2023-05-14T00:19:17.001Z,1018.28
2023-05-14T00:19:33.090Z,1018.3
2023-05-14T00:19:49.234Z,1018.26
2023-05-14T00:20:05.381Z,1018.27
2023-05-14T00:20:21.785Z,1018.27
2023-05-14T00:20:37.710Z,1018.28
2023-05-14T00:20:53.813Z,1018.29
2023-05-14T00:21:09.996Z,1018.29
2023-05-14T00:21:26.123Z,1018.28
2023-05-14T00:21:42.255Z,1018.26
2023-05-14T00:21:58.436Z,1018.29
2023-05-14T00:22:14.550Z,1018.27
2023-05-14T00:22:30.728Z,1018.29
2023-05-14T00:22:46.853Z,1018.26
2023-05-14T00:23:02.983Z,1018.27
2023-05-14T00:23:19.148Z,1018.29
2023-05-14T00:23:35.288Z,1018.3
2023-05-14T00:23:51.434Z,1018.31
2023-05-14T00:24:07.567Z,1018.28
2023-05-14T00:24:23.712Z,1018.3
2023-05-14T00:24:39.863Z,1018.28
2023-05-14T00:24:56.019Z,1018.27
2023-05-14T00:25:12.158Z,1018.26
2023-05-14T00:25:28.291Z,1018.26
2023-05-14T00:25:55.735Z,1018.23
2023-05-14T00:26:11.882Z,1018.23
2023-05-14T00:26:28.021Z,1018.23
2023-05-14T00:26:44.157Z,1018.26
2023-05-14T00:27:00.311Z,1018.24
2023-05-14T00:27:16.465Z,1018.25
2023-05-14T00:27:32.605Z,1018.24
2023-05-14T00:27:48.756Z,1018.23
2023-05-14T00:28:04.902Z,1018.25
2023-05-14T00:28:21.013Z,1018.25
2023-05-14T00:28:37.194Z,1018.23
2023-05-14T00:28:53.329Z,1018.24
2023-05-14T00:29:09.507Z,1018.26
2023-05-14T00:29:25.625Z,1018.23
2023-05-14T00:29:41.756Z,1018.24
2023-05-14T00:29:57.908Z,1018.23
2023-05-14T00:30:14.060Z,1018.26
2023-05-14T00:30:30.192Z,1018.19
2023-05-14T00:30:46.386Z,1018.21
2023-05-14T00:31:02.545Z,1018.2
2023-05-14T00:31:18.700Z,1018.19
2023-05-14T00:31:34.850Z,1018.18
2023-05-14T00:31:51.052Z,1018.19
2023-05-14T00:32:07.100Z,1018.21
2023-05-14T00:32:23.235Z,1018.19
2023-05-14T00:32:39.450Z,1018.17
2023-05-14T00:32:55.614Z,1018.17
2023-05-14T00:33:11.670Z,1018.16
2023-05-14T00:33:27.806Z,1018.15
2023-05-14T00:33:43.949Z,1018.16
2023-05-14T00:34:00.115Z,1018.14
2023-05-14T00:34:16.261Z,1018.17
2023-05-14T00:34:32.377Z,1018.2
2023-05-14T00:34:48.514Z,1018.19
2023-05-14T00:35:04.674Z,1018.13
2023-05-14T00:35:20.816Z,1018.18
2023-05-14T00:35:36.977Z,1018.13
2023-05-14T00:35:53.102Z,1018.14
2023-05-14T00:36:09.262Z,1018.19
2023-05-14T00:36:25.443Z,1018.13
2023-05-14T00:36:41.551Z,1018.16
2023-05-14T00:36:57.685Z,1018.13
2023-05-14T00:37:13.836Z,1018.15
2023-05-14T00:37:29.983Z,1018.16
2023-05-14T00:37:46.128Z,1018.19
2023-05-14T00:38:02.273Z,1018.14
2023-05-14T00:38:18.436Z,1018.18
2023-05-14T00:38:34.576Z,1018.13
2023-05-14T00:38:50.724Z,1018.15
2023-05-14T00:39:06.837Z,1018.15
2023-05-14T00:39:23.035Z,1018.16
2023-05-14T00:39:39.153Z,1018.16
2023-05-14T00:39:55.282Z,1018.16
2023-05-14T00:40:11.468Z,1018.16
2023-05-14T00:40:27.505Z,1018.17
2023-05-14T00:40:43.720Z,1018.11
2023-05-14T00:40:59.910Z,1018.17
2023-05-14T00:41:16.010Z,1018.17
2023-05-14T00:41:32.153Z,1018.18
2023-05-14T00:41:48.342Z,1018.21
2023-05-14T00:42:04.464Z,1018.19
2023-05-14T00:42:20.611Z,1018.15
2023-05-14T00:42:36.783Z,1018.14
2023-05-14T00:42:52.892Z,1018.17
2023-05-14T00:43:09.032Z,1018.12
2023-05-14T00:43:25.191Z,1018.17
2023-05-14T00:43:41.358Z,1018.13
2023-05-14T00:43:57.507Z,1018.14
2023-05-14T00:44:13.611Z,1018.15
2023-05-14T00:44:29.767Z,1018.13
2023-05-14T00:44:45.915Z,1018.14
2023-05-14T00:45:02.067Z,1018.12
2023-05-14T00:45:18.206Z,1018.11
2023-05-14T00:45:34.342Z,1018.12
2023-05-14T00:45:50.488Z,1018.11
2023-05-14T00:46:06.639Z,1018.12
2023-05-14T00:46:22.865Z,1018.12
2023-05-14T00:46:38.946Z,1018.12
2023-05-14T00:46:55.139Z,1018.14
2023-05-14T00:47:11.217Z,1018.18
2023-05-14T00:47:27.373Z,1018.08
2023-05-14T00:47:43.604Z,1018.09
2023-05-14T00:47:59.741Z,1018.11
2023-05-14T00:48:15.786Z,1018.14
2023-05-14T00:48:31.965Z,1018.1
2023-05-14T00:48:48.130Z,1018.06
2023-05-14T00:49:04.249Z,1018.12
2023-05-14T00:49:20.386Z,1018.12
2023-05-14T00:49:36.538Z,1018.09
2023-05-14T00:49:52.690Z,1018.09
2023-05-14T00:50:08.827Z,1018.14
2023-05-14T00:50:25.338Z,1018.13
2023-05-14T00:50:41.136Z,1018.07
2023-05-14T00:51:29.556Z,1018.14
2023-05-14T00:51:45.687Z,1018.1
2023-05-14T00:52:01.865Z,1018.09
2023-05-14T00:52:17.988Z,1018.08
2023-05-14T00:52:34.124Z,1018.1
2023-05-14T00:52:50.271Z,1018.1
2023-05-14T00:53:06.411Z,1018.07
2023-05-14T00:53:22.632Z,1018.09
2023-05-14T00:53:38.710Z,1018.11
2023-05-14T00:53:54.864Z,1018.12
2023-05-14T00:54:11.001Z,1018.14
2023-05-14T00:54:27.182Z,1018.12
2023-05-14T00:54:43.318Z,1018.11
2023-05-14T00:54:59.451Z,1018.14
2023-05-14T00:55:15.620Z,1018.13
2023-05-14T00:55:31.730Z,1018.12
2023-05-14T00:55:47.878Z,1018.11
2023-05-14T00:56:04.014Z,1018.11
2023-05-14T00:56:20.180Z,1018.11
2023-05-14T00:56:36.322Z,1018.09
2023-05-14T00:56:52.467Z,1018.11
2023-05-14T00:57:08.602Z,1018.09
2023-05-14T00:57:24.784Z,1018.1
2023-05-14T00:57:40.902Z,1018.12
2023-05-14T00:57:57.032Z,1018.09
2023-05-14T00:58:13.196Z,1018.11
2023-05-14T00:58:29.356Z,1018.11
2023-05-14T00:58:45.482Z,1018.08
2023-05-14T00:59:01.649Z,1018.11
2023-05-14T00:59:17.796Z,1018.1
2023-05-14T00:59:33.956Z,1018.1
2023-05-14T00:59:50.060Z,1018.1
2023-05-14T01:00:06.234Z,1018.12
2023-05-14T01:00:22.448Z,1018.09
2023-05-14T01:00:38.523Z,1018.1
2023-05-14T01:00:54.659Z,1018.06
2023-05-14T01:01:10.838Z,1018.07
2023-05-14T01:01:26.909Z,1018.06
2023-05-14T01:01:43.088Z,1018.1
2023-05-14T01:01:59.238Z,1018.09
2023-05-14T01:02:15.385Z,1018.12
2023-05-14T01:02:31.510Z,1018.09
2023-05-14T01:02:47.746Z,1018.09
2023-05-14T01:03:03.901Z,1018.1
2023-05-14T01:03:19.982Z,1018.08
2023-05-14T01:03:36.218Z,1018.08
2023-05-14T01:03:52.370Z,1018.11
2023-05-14T01:04:08.570Z,1018.08
2023-05-14T01:04:24.552Z,1018.11
2023-05-14T01:04:40.712Z,1018.07
2023-05-14T01:04:56.832Z,1018.06
2023-05-14T01:05:13.007Z,1018.06
2023-05-14T01:05:29.118Z,1018.03
2023-05-14T01:05:45.263Z,1018.02
2023-05-14T01:06:01.412Z,1018.03
2023-05-14T01:06:17.613Z,1018.03
2023-05-14T01:06:33.717Z,1018.05
2023-05-14T01:06:49.848Z,1018.06
2023-05-14T01:07:05.989Z,1018.05
2023-05-14T01:07:22.144Z,1018.05
2023-05-14T01:07:38.275Z,1018.04
2023-05-14T01:07:54.458Z,1018.06
2023-05-14T01:08:10.592Z,1018.05
2023-05-14T01:08:26.732Z,1018.02
2023-05-14T01:08:42.886Z,1018.04
2023-05-14T01:08:59.025Z,1018.04
2023-05-14T01:09:15.148Z,1018.07
2023-05-14T01:09:31.293Z,1018.06
2023-05-14T01:09:47.486Z,1018.05
2023-05-14T01:10:03.608Z,1018.03
2023-05-14T01:10:19.763Z,1018.06
2023-05-14T01:10:35.875Z,1018.05
2023-05-14T01:10:52.031Z,1018.03
2023-05-14T01:11:08.193Z,1018.04
2023-05-14T01:11:24.327Z,1018.09
2023-05-14T01:11:40.459Z,1018.03
2023-05-14T01:11:56.612Z,1018.04
2023-05-14T01:12:12.755Z,1018.02
2023-05-14T01:12:28.912Z,1018.07
2023-05-14T01:12:45.064Z,1018.01
2023-05-14T01:13:01.222Z,1018.05
2023-05-14T01:13:17.331Z,1018.06
2023-05-14T01:13:33.394Z,1018.07
2023-05-14T01:13:49.639Z,1018.02
2023-05-14T01:14:05.776Z,1018.03
2023-05-14T01:14:21.972Z,1018.03
2023-05-14T01:14:38.061Z,1018.06
2023-05-14T01:14:54.250Z,1018.04
2023-05-14T01:15:10.368Z,1018.06
2023-05-14T01:15:26.497Z,1018.05
2023-05-14T01:15:42.655Z,1018.07
2023-05-14T01:15:58.849Z,1018.07
2023-05-14T01:16:15.010Z,1018.09
2023-05-14T01:16:31.123Z,1018.08
2023-05-14T01:16:47.252Z,1018.09
2023-05-14T01:17:03.394Z,1018.1
2023-05-14T01:17:19.525Z,1018.08
2023-05-14T01:17:35.720Z,1018.07
2023-05-14T01:17:51.875Z,1018.09
2023-05-14T01:18:08.020Z,1018.07
2023-05-14T01:18:24.172Z,1018.11
2023-05-14T01:18:40.309Z,1018.07
2023-05-14T01:18:56.402Z,1018.06
2023-05-14T01:19:12.613Z,1018.08
2023-05-14T01:19:28.685Z,1018.09
2023-05-14T01:19:56.130Z,1018.04
2023-05-14T01:20:12.270Z,1018.05
2023-05-14T01:20:28.419Z,1018.07
2023-05-14T01:20:44.573Z,1018.07
2023-05-14T01:21:00.705Z,1018.09
2023-05-14T01:21:16.849Z,1018.05
2023-05-14T01:21:32.993Z,1018.06
2023-05-14T01:21:49.131Z,1018.07
2023-05-14T01:22:05.284Z,1018.1
2023-05-14T01:22:21.466Z,1018.11
2023-05-14T01:22:37.569Z,1018.06
2023-05-14T01:22:53.727Z,1018.12
2023-05-14T01:23:09.876Z,1018.07
2023-05-14T01:23:25.940Z,1018.14
2023-05-14T01:23:42.151Z,1018.09
2023-05-14T01:23:58.308Z,1018.09
2023-05-14T01:24:14.454Z,1018.11
2023-05-14T01:24:30.584Z,1018.1
2023-05-14T01:24:46.740Z,1018.1
2023-05-14T01:25:02.887Z,1018.09
2023-05-14T01:25:19.025Z,1018.14
2023-05-14T01:25:35.209Z,1018.12
2023-05-14T01:25:51.334Z,1018.11
2023-05-14T01:26:07.476Z,1018.09
2023-05-14T01:26:23.626Z,1018.16
2023-05-14T01:26:39.795Z,1018.12
2023-05-14T01:26:55.877Z,1018.13
2023-05-14T01:27:12.055Z,1018.1
2023-05-14T01:27:28.215Z,1018.1
2023-05-14T01:27:44.337Z,1018.11
2023-05-14T01:28:00.481Z,1018.11
2023-05-14T01:28:16.668Z,1018.09
2023-05-14T01:28:32.771Z,1018.1
2023-05-14T01:28:48.925Z,1018.11
2023-05-14T01:29:05.092Z,1018.1
2023-05-14T01:29:21.228Z,1018.1
2023-05-14T01:29:37.371Z,1018.14
2023-05-14T01:29:53.500Z,1018.13
2023-05-14T01:30:09.660Z,1018.09
2023-05-14T01:30:26.092Z,1018.1
2023-05-14T01:30:41.954Z,1018.09
2023-05-14T01:30:58.093Z,1018.11
2023-05-14T01:31:14.230Z,1018.09
2023-05-14T01:31:30.421Z,1018.06
2023-05-14T01:31:46.589Z,1018.1
2023-05-14T01:32:02.738Z,1018.08
2023-05-14T01:32:18.855Z,1018.07
2023-05-14T01:32:34.995Z,1018.07
2023-05-14T01:32:51.448Z,1018.06
2023-05-14T01:33:07.318Z,1018.07
2023-05-14T01:33:23.308Z,1018.09
2023-05-14T01:33:39.574Z,1018.09
2023-05-14T01:33:55.687Z,1018.07
2023-05-14T01:34:11.837Z,1018.04
2023-05-14T01:34:28.002Z,1018.02
2023-05-14T01:34:44.124Z,1018.06
2023-05-14T01:35:00.309Z,1018.06
2023-05-14T01:35:16.416Z,1018.08
2023-05-14T01:35:32.470Z,1018.08
2023-05-14T01:35:48.710Z,1018.04
2023-05-14T01:36:04.874Z,1018.06
2023-05-14T01:36:21.023Z,1018.07
2023-05-14T01:36:37.151Z,1018.05
2023-05-14T01:36:53.322Z,1018.08
2023-05-14T01:37:09.445Z,1018.08
2023-05-14T01:37:25.605Z,1018.07
2023-05-14T01:37:41.725Z,1018.04
2023-05-14T01:37:57.866Z,1018.07
2023-05-14T01:38:14.010Z,1018.04
2023-05-14T01:38:30.168Z,1018.04
2023-05-14T01:38:46.307Z,1018.06
2023-05-14T01:39:02.455Z,1018.04
2023-05-14T01:39:18.586Z,1018.04
2023-05-14T01:39:34.758Z,1018.04
2023-05-14T01:39:50.883Z,1018.04
2023-05-14T01:40:07.023Z,1018.02
2023-05-14T01:40:23.401Z,1018
2023-05-14T01:40:39.352Z,1018.02
2023-05-14T01:40:55.469Z,1018.01
2023-05-14T01:41:11.609Z,1018.03
2023-05-14T01:41:27.748Z,1018
2023-05-14T01:41:43.912Z,1017.98
2023-05-14T01:42:00.097Z,1018
2023-05-14T01:42:16.208Z,1017.97
2023-05-14T01:42:32.339Z,1017.97
2023-05-14T01:42:48.493Z,1017.94
2023-05-14T01:43:04.685Z,1017.97
2023-05-14T01:43:20.818Z,1017.95
2023-05-14T01:43:36.957Z,1017.92
2023-05-14T01:43:53.091Z,1017.92
2023-05-14T01:44:09.229Z,1017.98
2023-05-14T01:44:25.287Z,1017.89
2023-05-14T01:44:41.510Z,1017.94
2023-05-14T01:44:57.669Z,1017.91
2023-05-14T01:45:13.823Z,1017.93
2023-05-14T01:45:29.871Z,1017.95
2023-05-14T01:45:46.142Z,1017.98
2023-05-14T01:46:02.308Z,1017.9
2023-05-14T01:46:18.402Z,1017.93
2023-05-14T01:46:34.559Z,1017.94
2023-05-14T01:46:50.709Z,1017.91
2023-05-14T01:47:06.835Z,1017.9
2023-05-14T01:47:23.020Z,1017.89
2023-05-14T01:47:39.052Z,1017.9
2023-05-14T01:47:55.291Z,1017.9
2023-05-14T01:48:11.446Z,1017.91
2023-05-14T01:48:27.601Z,1017.87
2023-05-14T01:48:43.730Z,1017.93
2023-05-14T01:48:59.820Z,1017.89
2023-05-14T01:49:15.983Z,1017.86
2023-05-14T01:49:32.144Z,1017.89
2023-05-14T01:49:48.269Z,1017.86
2023-05-14T01:50:04.414Z,1017.88
2023-05-14T01:50:20.580Z,1017.87
2023-05-14T01:50:36.730Z,1017.85
2023-05-14T01:50:52.849Z,1017.86
2023-05-14T01:51:09.000Z,1017.87
2023-05-14T01:51:25.138Z,1017.89
2023-05-14T01:51:41.325Z,1017.87
2023-05-14T01:51:57.443Z,1017.91
2023-05-14T01:52:13.577Z,1017.88
2023-05-14T01:52:29.719Z,1017.89
2023-05-14T01:52:45.884Z,1017.86
2023-05-14T01:53:02.088Z,1017.89
2023-05-14T01:53:18.178Z,1017.84
2023-05-14T01:53:34.301Z,1017.88
2023-05-14T01:53:50.469Z,1017.86
2023-05-14T01:54:06.715Z,1017.89
2023-05-14T01:54:22.765Z,1017.88
2023-05-14T01:54:38.884Z,1017.87
2023-05-14T01:54:55.041Z,1017.9
2023-05-14T01:55:11.183Z,1017.86
2023-05-14T01:55:27.345Z,1017.86
2023-05-14T01:55:43.470Z,1017.83
2023-05-14T01:55:59.620Z,1017.86
2023-05-14T01:56:15.775Z,1017.88
2023-05-14T01:56:31.901Z,1017.85
2023-05-14T01:56:48.065Z,1017.87
2023-05-14T01:57:04.189Z,1017.88
2023-05-14T01:57:20.360Z,1017.9
2023-05-14T01:57:36.487Z,1017.89
2023-05-14T01:57:52.705Z,1017.87
2023-05-14T01:58:08.807Z,1017.87
2023-05-14T01:58:24.927Z,1017.88
2023-05-14T01:58:41.067Z,1017.85
2023-05-14T01:58:57.235Z,1017.88
2023-05-14T01:59:13.375Z,1017.86
2023-05-14T01:59:29.518Z,1017.88
2023-05-14T02:00:01.849Z,1017.88
2023-05-14T02:00:17.995Z,1017.88
2023-05-14T02:00:34.109Z,1017.89
2023-05-14T02:00:50.233Z,1017.85
2023-05-14T02:01:06.388Z,1017.84
2023-05-14T02:01:22.593Z,1017.89
2023-05-14T02:01:38.703Z,1017.88
2023-05-14T02:01:54.888Z,1017.9
2023-05-14T02:02:10.987Z,1017.87
2023-05-14T02:02:27.194Z,1017.88
2023-05-14T02:02:43.321Z,1017.9
2023-05-14T02:02:59.433Z,1017.9
2023-05-14T02:03:15.537Z,1017.9
2023-05-14T02:03:31.717Z,1017.88
2023-05-14T02:03:47.871Z,1017.88
2023-05-14T02:04:04.116Z,1017.86
2023-05-14T02:04:20.169Z,1017.9
2023-05-14T02:04:36.262Z,1017.91
2023-05-14T02:04:52.446Z,1017.88
2023-05-14T02:05:08.597Z,1017.9
2023-05-14T02:05:24.716Z,1017.88
2023-05-14T02:05:40.905Z,1017.89
2023-05-14T02:05:57.021Z,1017.89
2023-05-14T02:06:13.173Z,1017.86
2023-05-14T02:06:29.294Z,1017.86
2023-05-14T02:06:45.434Z,1017.87
2023-05-14T02:07:01.591Z,1017.86
2023-05-14T02:07:17.715Z,1017.87
2023-05-14T02:07:33.884Z,1017.88
2023-05-14T02:07:50.076Z,1017.87
2023-05-14T02:08:06.169Z,1017.83
2023-05-14T02:08:22.320Z,1017.88
2023-05-14T02:08:38.472Z,1017.87
2023-05-14T02:08:54.618Z,1017.87
2023-05-14T02:09:10.774Z,1017.9
2023-05-14T02:09:26.911Z,1017.88
2023-05-14T02:09:43.037Z,1017.88
2023-05-14T02:09:59.208Z,1017.86
2023-05-14T02:10:15.322Z,1017.87
2023-05-14T02:10:31.475Z,1017.84
2023-05-14T02:10:47.624Z,1017.86
2023-05-14T02:11:03.787Z,1017.85
2023-05-14T02:11:19.915Z,1017.87
2023-05-14T02:11:36.060Z,1017.87
2023-05-14T02:11:52.226Z,1017.87
2023-05-14T02:12:08.372Z,1017.85
2023-05-14T02:12:24.512Z,1017.9
2023-05-14T02:12:40.717Z,1017.88
2023-05-14T02:12:56.801Z,1017.89
2023-05-14T02:13:12.930Z,1017.86
2023-05-14T02:13:29.067Z,1017.89
2023-05-14T02:13:56.515Z,1017.87
2023-05-14T02:14:12.643Z,1017.85
2023-05-14T02:14:28.808Z,1017.88
2023-05-14T02:14:44.947Z,1017.87
2023-05-14T02:15:01.079Z,1017.86
2023-05-14T02:15:17.232Z,1017.88
2023-05-14T02:15:33.370Z,1017.85
2023-05-14T02:15:49.538Z,1017.88
2023-05-14T02:16:05.693Z,1017.86
2023-05-14T02:16:21.921Z,1017.89
2023-05-14T02:16:37.955Z,1017.88
2023-05-14T02:16:54.132Z,1017.88
2023-05-14T02:17:10.250Z,1017.87
2023-05-14T02:17:26.481Z,1017.86
2023-05-14T02:17:42.621Z,1017.85
2023-05-14T02:17:58.805Z,1017.84
2023-05-14T02:18:14.841Z,1017.85
2023-05-14T02:18:31.040Z,1017.87
2023-05-14T02:18:47.144Z,1017.89
2023-05-14T02:19:03.345Z,1017.91
2023-05-14T02:19:19.409Z,1017.85
2023-05-14T02:19:35.565Z,1017.86
2023-05-14T02:19:51.720Z,1017.84
2023-05-14T02:20:07.849Z,1017.89
2023-05-14T02:20:24.274Z,1017.88
2023-05-14T02:20:40.147Z,1017.88
2023-05-14T02:20:56.313Z,1017.88
2023-05-14T02:21:12.445Z,1017.87
2023-05-14T02:21:28.586Z,1017.87
2023-05-14T02:21:44.741Z,1017.83
2023-05-14T02:22:00.883Z,1017.8
2023-05-14T02:22:17.018Z,1017.84
2023-05-14T02:22:33.217Z,1017.81
2023-05-14T02:22:49.323Z,1017.77
2023-05-14T02:23:05.502Z,1017.87
2023-05-14T02:23:31.039Z,1017.84
2023-05-14T02:23:41.920Z,1017.8
2023-05-14T02:23:53.901Z,1017.79
2023-05-14T02:24:10.079Z,1017.83
2023-05-14T02:24:26.196Z,1017.81
2023-05-14T02:24:42.354Z,1017.8
2023-05-14T02:24:58.482Z,1017.8
2023-05-14T02:25:14.627Z,1017.83
2023-05-14T02:25:30.772Z,1017.8
2023-05-14T02:25:46.895Z,1017.79
2023-05-14T02:26:03.060Z,1017.83
2023-05-14T02:26:19.202Z,1017.81
2023-05-14T02:26:35.376Z,1017.85
2023-05-14T02:26:51.490Z,1017.82
2023-05-14T02:27:07.661Z,1017.81
2023-05-14T02:27:23.804Z,1017.83
2023-05-14T02:27:39.937Z,1017.82
2023-05-14T02:27:56.073Z,1017.8
2023-05-14T02:28:12.232Z,1017.79
2023-05-14T02:28:28.381Z,1017.8
2023-05-14T02:28:44.526Z,1017.87
2023-05-14T02:29:00.647Z,1017.85
2023-05-14T02:29:16.824Z,1017.85
2023-05-14T02:29:32.960Z,1017.81
2023-05-14T02:29:49.090Z,1017.81
2023-05-14T02:30:05.286Z,1017.83
2023-05-14T02:30:21.536Z,1017.8
2023-05-14T02:30:37.546Z,1017.82
2023-05-14T02:30:53.677Z,1017.78
2023-05-14T02:31:09.857Z,1017.8
2023-05-14T02:31:25.984Z,1017.81
2023-05-14T02:31:42.163Z,1017.79
2023-05-14T02:31:58.401Z,1017.84
2023-05-14T02:32:14.426Z,1017.79
2023-05-14T02:32:30.633Z,1017.82
2023-05-14T02:32:46.764Z,1017.8
2023-05-14T02:33:02.980Z,1017.84
2023-05-14T02:33:19.180Z,1017.79
2023-05-14T02:33:35.167Z,1017.82
2023-05-14T02:33:51.272Z,1017.79
2023-05-14T02:34:07.456Z,1017.8
2023-05-14T02:34:23.592Z,1017.86
2023-05-14T02:34:39.745Z,1017.78
2023-05-14T02:34:55.881Z,1017.8
2023-05-14T02:35:12.016Z,1017.81
2023-05-14T02:35:28.151Z,1017.86
2023-05-14T02:35:44.298Z,1017.82
2023-05-14T02:36:00.476Z,1017.82
2023-05-14T02:36:16.614Z,1017.84
2023-05-14T02:36:32.751Z,1017.81
2023-05-14T02:36:48.877Z,1017.82
2023-05-14T02:37:05.025Z,1017.83
2023-05-14T02:37:21.217Z,1017.8
2023-05-14T02:37:37.327Z,1017.8
2023-05-14T02:37:53.462Z,1017.84
2023-05-14T02:38:09.595Z,1017.82
2023-05-14T02:38:25.758Z,1017.8
2023-05-14T02:38:41.891Z,1017.84
2023-05-14T02:38:58.031Z,1017.82
2023-05-14T02:39:14.197Z,1017.83
2023-05-14T02:39:30.340Z,1017.84
2023-05-14T02:39:46.479Z,1017.81
2023-05-14T02:40:02.620Z,1017.83
2023-05-14T02:40:18.789Z,1017.8
2023-05-14T02:40:34.943Z,1017.78
2023-05-14T02:40:51.081Z,1017.79
2023-05-14T02:41:07.219Z,1017.81
2023-05-14T02:41:23.372Z,1017.82
2023-05-14T02:41:39.513Z,1017.79
2023-05-14T02:41:55.643Z,1017.79
2023-05-14T02:42:11.850Z,1017.78
2023-05-14T02:42:27.972Z,1017.78
2023-05-14T02:42:44.077Z,1017.82
2023-05-14T02:43:00.282Z,1017.77
2023-05-14T02:43:16.375Z,1017.79
2023-05-14T02:43:32.527Z,1017.79
2023-05-14T02:43:48.658Z,1017.76
2023-05-14T02:44:04.840Z,1017.81
2023-05-14T02:44:20.957Z,1017.8
2023-05-14T02:44:37.106Z,1017.77
2023-05-14T02:44:53.269Z,1017.78
2023-05-14T02:45:09.415Z,1017.78
2023-05-14T02:45:25.535Z,1017.8
2023-05-14T02:45:41.687Z,1017.82
2023-05-14T02:45:57.839Z,1017.81
2023-05-14T02:46:14.001Z,1017.81
2023-05-14T02:46:30.192Z,1017.75
2023-05-14T02:46:46.311Z,1017.79
2023-05-14T02:47:02.470Z,1017.79
2023-05-14T02:47:18.539Z,1017.81
2023-05-14T02:47:37.512Z,1017.79
2023-05-14T02:47:50.870Z,1017.78
2023-05-14T02:48:07.072Z,1017.77
2023-05-14T02:48:23.135Z,1017.81
2023-05-14T02:48:39.295Z,1017.78
2023-05-14T02:48:55.441Z,1017.79
2023-05-14T02:49:11.610Z,1017.78
2023-05-14T02:49:27.653Z,1017.79
2023-05-14T02:49:43.876Z,1017.79
2023-05-14T02:50:00.063Z,1017.75
2023-05-14T02:50:16.176Z,1017.74
2023-05-14T02:50:32.311Z,1017.76
2023-05-14T02:50:48.452Z,1017.73
2023-05-14T02:51:04.612Z,1017.78
2023-05-14T02:51:20.762Z,1017.74
2023-05-14T02:51:36.895Z,1017.73
2023-05-14T02:51:53.011Z,1017.74
2023-05-14T02:52:09.175Z,1017.74
2023-05-14T02:52:25.321Z,1017.73
2023-05-14T02:52:41.468Z,1017.78
2023-05-14T02:52:57.623Z,1017.72
2023-05-14T02:53:13.769Z,1017.74
2023-05-14T02:53:29.902Z,1017.75
2023-05-14T02:53:46.039Z,1017.74
2023-05-14T02:54:02.181Z,1017.78
2023-05-14T02:54:18.375Z,1017.68
2023-05-14T02:54:34.505Z,1017.73
2023-05-14T02:54:50.654Z,1017.75
2023-05-14T02:55:06.791Z,1017.75
2023-05-14T02:55:22.935Z,1017.72
2023-05-14T02:55:39.064Z,1017.74
2023-05-14T02:55:55.212Z,1017.73
2023-05-14T02:56:11.450Z,1017.71
2023-05-14T02:56:27.498Z,1017.76
2023-05-14T02:56:43.659Z,1017.71
2023-05-14T02:56:59.808Z,1017.75
2023-05-14T02:57:15.977Z,1017.7
2023-05-14T02:57:32.089Z,1017.72
2023-05-14T02:57:48.221Z,1017.74
2023-05-14T02:58:04.379Z,1017.74
2023-05-14T02:58:20.520Z,1017.73
2023-05-14T02:58:36.687Z,1017.71
2023-05-14T02:58:52.828Z,1017.76
2023-05-14T02:59:08.969Z,1017.73
2023-05-14T02:59:25.106Z,1017.71
2023-05-14T02:59:41.256Z,1017.72
2023-05-14T02:59:57.404Z,1017.75
2023-05-14T03:00:15.052Z,1017.72
2023-05-14T03:00:30.073Z,1017.71
2023-05-14T03:00:45.955Z,1017.74
2023-05-14T03:01:02.071Z,1017.74
2023-05-14T03:01:18.174Z,1017.72
2023-05-14T03:01:34.281Z,1017.72
2023-05-14T03:01:50.446Z,1017.76
2023-05-14T03:02:06.565Z,1017.75
2023-05-14T03:02:22.755Z,1017.74
2023-05-14T03:02:38.952Z,1017.76
2023-05-14T03:02:55.068Z,1017.73
2023-05-14T03:03:11.197Z,1017.73
2023-05-14T03:03:27.354Z,1017.72
2023-05-14T03:03:43.439Z,1017.76
2023-05-14T03:03:59.614Z,1017.75
2023-05-14T03:04:15.780Z,1017.77
2023-05-14T03:04:31.881Z,1017.76
2023-05-14T03:04:48.029Z,1017.76
2023-05-14T03:05:04.175Z,1017.77
2023-05-14T03:05:20.312Z,1017.75
2023-05-14T03:05:36.453Z,1017.79
2023-05-14T03:05:52.613Z,1017.77
2023-05-14T03:06:08.760Z,1017.72
2023-05-14T03:06:24.888Z,1017.75
2023-05-14T03:06:41.041Z,1017.75
2023-05-14T03:06:57.181Z,1017.75
2023-05-14T03:07:13.328Z,1017.74
2023-05-14T03:07:29.462Z,1017.76
2023-05-14T03:07:56.909Z,1017.75
2023-05-14T03:08:12.978Z,1017.75
2023-05-14T03:08:29.226Z,1017.75
2023-05-14T03:08:45.344Z,1017.75
2023-05-14T03:09:01.498Z,1017.73
2023-05-14T03:09:17.635Z,1017.72
2023-05-14T03:09:34.999Z,1017.75
2023-05-14T03:09:49.933Z,1017.75
2023-05-14T03:10:06.059Z,1017.74
2023-05-14T03:10:22.469Z,1017.71
2023-05-14T03:10:38.363Z,1017.75
2023-05-14T03:10:54.509Z,1017.75
2023-05-14T03:11:10.667Z,1017.75
2023-05-14T03:11:26.783Z,1017.74
2023-05-14T03:11:42.979Z,1017.77
2023-05-14T03:11:59.090Z,1017.75
2023-05-14T03:12:15.222Z,1017.76
2023-05-14T03:12:31.398Z,1017.75
2023-05-14T03:12:47.535Z,1017.73
2023-05-14T03:13:03.674Z,1017.77
2023-05-14T03:13:19.833Z,1017.72
2023-05-14T03:13:35.969Z,1017.77
2023-05-14T03:13:52.128Z,1017.79
2023-05-14T03:14:08.265Z,1017.74
2023-05-14T03:14:24.425Z,1017.74
2023-05-14T03:14:40.530Z,1017.72
2023-05-14T03:14:56.689Z,1017.76
2023-05-14T03:15:12.822Z,1017.74
2023-05-14T03:15:28.981Z,1017.74
2023-05-14T03:15:45.154Z,1017.74
2023-05-14T03:16:01.265Z,1017.72
2023-05-14T03:16:17.500Z,1017.74
2023-05-14T03:16:33.638Z,1017.76
2023-05-14T03:16:49.753Z,1017.74
2023-05-14T03:17:05.901Z,1017.75
2023-05-14T03:17:22.101Z,1017.72
2023-05-14T03:17:38.193Z,1017.75
2023-05-14T03:17:54.328Z,1017.71
2023-05-14T03:18:10.462Z,1017.72